Time;durP1;ratioP1;P1;durP2;ratioP2;P2;SDS_P1;SDS_P2;PMS_P1;PMS_P2;Temp;Humidity;BMP_temperature;BMP_pressure;BME280_temperature;BME280_humidity;BME280_pressure;Samples;Min_cycle;Max_cycle;Signal;HPM_P1;HPM_P2
2023/05/18 00:01:15;;;;;;;10.93;3.50;;;10.00;99.90;;;;;;5112929;28;20027;-74
2023/05/18 00:03:41;;;;;;;13.35;3.85;;;10.00;99.90;;;;;;5113141;28;20456;-69
2023/05/18 00:06:07;;;;;;;8.77;3.80;;;10.00;99.90;;;;;;5112984;28;20026;-69
2023/05/18 00:08:33;;;;;;;8.75;3.80;;;10.00;99.90;;;;;;5112592;28;20020;-69
2023/05/18 00:11:00;;;;;;;8.05;3.60;;;10.00;99.90;;;;;;5113064;28;20027;-69
2023/05/18 00:13:25;;;;;;;12.13;3.58;;;10.00;99.90;;;;;;5112606;28;20038;-69
2023/05/18 00:15:51;;;;;;;8.60;3.80;;;10.00;99.90;;;;;;5112947;28;20028;-69
2023/05/18 00:18:17;;;;;;;8.85;4.03;;;10.00;99.90;;;;;;5112428;28;20023;-70
2023/05/18 00:20:43;;;;;;;8.27;3.40;;;10.00;99.90;;;;;;5112998;28;20023;-69
2023/05/18 00:23:15;;;;;;;8.23;3.78;;;10.00;99.90;;;;;;5112867;28;20023;-69
2023/05/18 00:25:41;;;;;;;11.63;4.10;;;10.00;99.90;;;;;;5112842;28;20391;-70
2023/05/18 00:28:07;;;;;;;7.88;3.47;;;10.10;99.90;;;;;;5112805;28;20112;-70
2023/05/18 00:30:32;;;;;;;9.43;3.78;;;10.00;99.90;;;;;;5112265;28;20028;-70
2023/05/18 00:32:58;;;;;;;9.25;3.88;;;10.00;99.90;;;;;;5112711;28;20030;-70
2023/05/18 00:35:23;;;;;;;7.78;3.40;;;10.00;99.90;;;;;;5112362;28;20512;-70
2023/05/18 00:37:49;;;;;;;8.30;3.60;;;10.10;99.90;;;;;;5112483;28;20068;-70
2023/05/18 00:40:15;;;;;;;7.78;3.67;;;10.00;99.90;;;;;;5114949;28;20055;-70
2023/05/18 00:42:41;;;;;;;10.32;3.30;;;10.00;99.90;;;;;;5116333;28;20030;-70
2023/05/18 00:45:07;;;;;;;7.70;3.67;;;10.00;99.90;;;;;;5116226;28;20492;-70
2023/05/18 00:47:32;;;;;;;8.35;3.67;;;10.00;99.90;;;;;;5115783;28;20032;-70
2023/05/18 00:49:58;;;;;;;9.13;3.88;;;10.00;99.90;;;;;;5115773;28;20099;-70
2023/05/18 00:52:25;;;;;;;8.63;4.05;;;10.00;99.90;;;;;;5115956;28;20383;-70
2023/05/18 00:54:52;;;;;;;12.85;3.92;;;10.00;99.90;;;;;;5116110;28;20020;-70
2023/05/18 00:57:19;;;;;;;9.13;4.03;;;10.00;99.90;;;;;;5115822;28;20031;-71
2023/05/18 00:59:45;;;;;;;12.50;3.97;;;10.00;99.90;;;;;;5116443;28;20471;-70
2023/05/18 01:02:13;;;;;;;8.65;3.88;;;10.00;99.90;;;;;;5116218;28;20031;-70
2023/05/18 01:04:40;;;;;;;9.02;4.10;;;10.00;99.90;;;;;;5115879;28;20026;-70
2023/05/18 01:07:06;;;;;;;10.07;3.78;;;10.00;99.90;;;;;;5116304;28;20371;-70
2023/05/18 01:09:33;;;;;;;12.32;4.43;;;10.00;99.90;;;;;;5115709;27;20537;-70
2023/05/18 01:12:11;;;;;;;12.90;4.00;;;10.00;99.90;;;;;;5116198;28;20365;-70
2023/05/18 01:14:37;;;;;;;9.52;3.90;;;10.00;99.90;;;;;;5115371;28;20425;-70
2023/05/18 01:17:15;;;;;;;14.43;4.15;;;10.00;99.90;;;;;;5116017;28;20072;-70
2023/05/18 01:19:50;;;;;;;9.02;3.75;;;10.00;99.90;;;;;;5115575;28;20028;-70
2023/05/18 01:22:34;;;;;;;8.18;3.53;;;10.00;99.90;;;;;;5115601;28;20115;-70
2023/05/18 01:25:18;;;;;;;13.57;4.28;;;10.00;99.90;;;;;;5114544;28;20065;-70
2023/05/18 01:27:45;;;;;;;6.70;3.67;;;10.00;99.90;;;;;;5115386;28;20023;-70
2023/05/18 01:30:14;;;;;;;10.43;3.60;;;10.00;99.90;;;;;;5115630;28;20110;-70
2023/05/18 01:32:41;;;;;;;10.52;3.83;;;10.00;99.90;;;;;;5115304;28;20054;-70
2023/05/18 01:35:07;;;;;;;10.88;4.00;;;10.00;99.90;;;;;;5115583;28;20028;-72
2023/05/18 01:37:33;;;;;;;10.82;4.40;;;10.00;99.90;;;;;;5115000;28;20114;-70
2023/05/18 01:39:59;;;;;;;12.40;3.55;;;10.00;99.90;;;;;;5115519;28;20102;-70
2023/05/18 01:42:28;;;;;;;12.63;3.63;;;10.00;99.90;;;;;;5115176;28;20027;-70
2023/05/18 01:45:00;;;;;;;11.43;4.22;;;10.00;99.90;;;;;;5114556;28;20043;-70
2023/05/18 01:47:29;;;;;;;11.27;4.15;;;9.90;99.90;;;;;;5115176;28;20030;-70
2023/05/18 01:50:09;;;;;;;10.98;3.38;;;10.00;99.90;;;;;;5115071;28;20032;-70
2023/05/18 01:52:47;;;;;;;6.97;3.42;;;10.00;99.90;;;;;;5114950;28;20472;-70
2023/05/18 01:55:15;;;;;;;7.63;3.30;;;10.00;99.90;;;;;;5115366;28;20024;-69
2023/05/18 01:57:44;;;;;;;7.75;3.58;;;10.00;99.90;;;;;;5114532;28;20484;-69
2023/05/18 02:00:11;;;;;;;8.40;4.10;;;10.00;99.90;;;;;;5115169;28;20034;-69
2023/05/18 02:02:37;;;;;;;11.48;4.25;;;10.00;99.90;;;;;;5114737;28;20057;-70
2023/05/18 02:05:04;;;;;;;9.23;4.03;;;10.00;99.90;;;;;;5115147;28;20020;-69
2023/05/18 02:07:30;;;;;;;11.00;3.05;;;10.00;99.90;;;;;;5114550;28;20081;-69
2023/05/18 02:09:56;;;;;;;13.07;3.53;;;10.00;99.90;;;;;;5115006;28;20023;-69
2023/05/18 02:12:21;;;;;;;7.50;3.75;;;10.00;99.90;;;;;;5115972;28;20035;-69
2023/05/18 02:14:47;;;;;;;9.98;3.88;;;10.00;99.90;;;;;;5117972;28;20507;-69
2023/05/18 02:17:13;;;;;;;7.90;3.55;;;10.00;99.90;;;;;;5115600;28;20023;-69
2023/05/18 02:19:38;;;;;;;7.55;3.45;;;10.00;99.90;;;;;;5114402;28;20062;-70
2023/05/18 02:22:05;;;;;;;8.35;3.20;;;10.00;99.90;;;;;;5115408;28;20036;-68
2023/05/18 02:24:32;;;;;;;8.68;3.55;;;9.90;99.90;;;;;;5114366;28;20051;-69
2023/05/18 02:26:57;;;;;;;8.20;3.22;;;10.00;99.90;;;;;;5114578;28;20114;-68
2023/05/18 02:29:23;;;;;;;10.93;3.60;;;9.90;99.90;;;;;;5114511;28;20059;-69
2023/05/18 02:31:49;;;;;;;9.93;3.63;;;10.00;99.90;;;;;;5114196;28;20037;-68
2023/05/18 02:34:15;;;;;;;11.27;3.90;;;9.90;99.90;;;;;;5114384;28;20096;-69
2023/05/18 02:36:41;;;;;;;8.93;3.50;;;9.90;99.90;;;;;;5114082;28;20100;-69
2023/05/18 02:39:08;;;;;;;15.98;3.30;;;9.90;99.90;;;;;;5113120;28;20451;-70
2023/05/18 02:41:35;;;;;;;8.63;3.20;;;9.90;99.90;;;;;;5114030;28;20031;-70
2023/05/18 02:44:02;;;;;;;8.60;3.28;;;9.90;99.90;;;;;;5114277;28;20070;-69
2023/05/18 02:46:27;;;;;;;10.68;3.35;;;9.90;99.90;;;;;;5113325;28;20150;-70
2023/05/18 02:48:53;;;;;;;7.38;3.55;;;9.90;99.90;;;;;;5114203;28;20059;-69
2023/05/18 02:51:20;;;;;;;12.55;3.80;;;9.90;99.90;;;;;;5114093;28;20035;-69
2023/05/18 02:53:46;;;;;;;12.30;3.50;;;9.90;99.90;;;;;;5111955;28;20407;-69
2023/05/18 02:56:12;;;;;;;10.30;3.40;;;9.90;99.90;;;;;;5112839;28;20024;-70
2023/05/18 02:58:38;;;;;;;7.03;3.60;;;9.90;99.90;;;;;;5113578;28;20031;-69
2023/05/18 03:01:06;;;;;;;10.13;3.42;;;9.90;99.90;;;;;;5114256;28;20103;-70
2023/05/18 03:03:33;;;;;;;8.90;4.00;;;9.90;99.90;;;;;;5112851;28;20089;-70
2023/05/18 03:06:01;;;;;;;12.73;4.07;;;9.90;99.90;;;;;;5113807;28;20027;-69
2023/05/18 03:08:27;;;;;;;10.50;3.47;;;9.90;99.90;;;;;;5113750;28;20020;-76
2023/05/18 03:10:54;;;;;;;13.70;3.85;;;9.90;99.90;;;;;;5113799;28;20356;-70
2023/05/18 03:13:19;;;;;;;8.98;3.70;;;9.90;99.90;;;;;;5113698;28;20051;-70
2023/05/18 03:15:45;;;;;;;9.52;3.15;;;9.90;99.90;;;;;;5111874;28;20062;-70
2023/05/18 03:18:12;;;;;;;12.98;3.35;;;9.90;99.90;;;;;;5113684;28;20019;-70
2023/05/18 03:20:38;;;;;;;12.00;4.15;;;9.90;99.90;;;;;;5113255;28;20038;-70
2023/05/18 03:23:04;;;;;;;12.48;3.83;;;9.90;99.90;;;;;;5113731;28;20376;-70
2023/05/18 03:25:31;;;;;;;16.33;3.92;;;9.90;99.90;;;;;;5113232;28;20027;-70
2023/05/18 03:27:57;;;;;;;9.10;3.42;;;9.90;99.90;;;;;;5113473;28;20031;-70
2023/05/18 03:30:23;;;;;;;8.13;3.25;;;9.90;99.90;;;;;;5113430;28;20032;-70
2023/05/18 03:32:49;;;;;;;11.65;3.65;;;9.90;99.90;;;;;;5113084;28;20164;-70
2023/05/18 03:35:15;;;;;;;15.55;4.05;;;9.90;99.90;;;;;;5113323;28;20038;-70
2023/05/18 03:37:40;;;;;;;13.35;3.60;;;9.90;99.90;;;;;;5112733;28;20026;-69
2023/05/18 03:40:12;;;;;;;18.67;3.70;;;10.00;99.90;;;;;;5113109;28;20032;-68
2023/05/18 03:42:38;;;;;;;;;;;9.90;99.90;;;;;;5113281;28;20028;-69
2023/05/18 03:45:04;;;;;;;9.73;3.05;;;10.00;99.90;;;;;;5113373;28;19915;-70
2023/05/18 03:47:29;;;;;;;8.82;3.50;;;10.00;99.90;;;;;;5110405;28;20096;-74
2023/05/18 03:49:55;;;;;;;15.80;3.70;;;10.00;99.90;;;;;;5113300;28;20059;-69
2023/05/18 03:52:21;;;;;;;11.80;3.60;;;10.00;99.90;;;;;;5113082;28;20379;-69
2023/05/18 03:54:48;;;;;;;8.73;3.10;;;10.00;99.90;;;;;;5112729;28;20030;-69
2023/05/18 03:57:15;;;;;;;10.85;3.22;;;10.00;99.90;;;;;;5113341;28;20169;-69
2023/05/18 03:59:41;;;;;;;12.93;3.90;;;10.00;99.90;;;;;;5112854;28;20455;-69
2023/05/18 04:02:07;;;;;;;14.30;3.42;;;10.00;99.90;;;;;;5113112;28;20023;-68
2023/05/18 04:04:33;;;;;;;11.63;3.10;;;10.00;99.90;;;;;;5112674;28;20028;-71
2023/05/18 04:07:00;;;;;;;13.00;3.70;;;10.00;99.90;;;;;;5112856;28;20168;-70
2023/05/18 04:09:27;;;;;;;14.45;3.38;;;10.10;99.90;;;;;;5113032;28;20030;-71
2023/05/18 04:11:52;;;;;;;12.35;3.38;;;10.10;99.90;;;;;;5112307;28;20104;-71
2023/05/18 04:14:19;;;;;;;11.82;3.50;;;10.10;99.90;;;;;;5115462;28;20024;-70
2023/05/18 04:16:45;;;;;;;10.60;3.05;;;10.00;99.90;;;;;;5116649;28;20107;-70
2023/05/18 04:19:12;;;;;;;15.82;2.97;;;10.10;99.90;;;;;;5116777;28;20531;-70
2023/05/18 04:21:38;;;;;;;9.05;3.17;;;10.10;99.90;;;;;;5116726;28;20035;-70
2023/05/18 04:24:05;;;;;;;10.73;3.38;;;10.10;99.90;;;;;;5116758;28;20425;-69
2023/05/18 04:26:35;;;;;;;11.02;3.33;;;10.10;99.90;;;;;;5116940;28;20073;-68
2023/05/18 04:29:02;;;;;;;8.40;2.75;;;10.10;99.90;;;;;;5116993;28;20035;-69
2023/05/18 04:31:28;;;;;;;12.77;3.22;;;10.10;99.90;;;;;;5116969;28;20042;-69
2023/05/18 04:33:54;;;;;;;13.38;3.30;;;10.10;99.90;;;;;;5116393;28;20041;-69
2023/05/18 04:36:24;;;;;;;13.13;3.13;;;10.20;99.90;;;;;;5116803;28;20059;-70
2023/05/18 04:38:53;;;;;;;15.05;3.38;;;10.20;99.90;;;;;;5116424;28;20020;-70
2023/05/18 04:41:21;;;;;;;9.80;3.00;;;10.20;99.90;;;;;;5116655;28;20027;-69
2023/05/18 04:43:49;;;;;;;9.85;2.75;;;10.20;99.90;;;;;;5116312;28;20065;-70
2023/05/18 04:46:15;;;;;;;13.00;3.05;;;10.20;99.90;;;;;;5116752;28;20044;-68
2023/05/18 04:48:41;;;;;;;10.05;2.92;;;10.20;99.80;;;;;;5116122;28;20111;-70
2023/05/18 04:51:07;;;;;;;8.07;2.75;;;10.20;99.60;;;;;;5116472;28;20149;-70
2023/05/18 04:53:33;;;;;;;13.50;3.17;;;10.20;99.80;;;;;;5116470;28;20452;-70
2023/05/18 04:56:00;;;;;;;13.43;3.22;;;10.20;99.70;;;;;;5116096;28;20044;-70
2023/05/18 04:58:29;;;;;;;10.32;3.17;;;10.20;99.80;;;;;;5116419;28;20055;-70
2023/05/18 05:00:55;;;;;;;14.40;3.10;;;10.20;99.80;;;;;;5115997;28;20062;-70
2023/05/18 05:03:21;;;;;;;6.78;2.45;;;10.30;99.60;;;;;;5116654;28;20455;-70
2023/05/18 05:05:46;;;;;;;9.95;3.30;;;10.30;99.60;;;;;;5115876;27;20375;-70
2023/05/18 05:08:12;;;;;;;10.13;2.53;;;10.30;99.30;;;;;;5116232;28;20027;-70
2023/05/18 05:10:37;;;;;;;16.05;3.20;;;10.30;99.50;;;;;;5115713;28;20389;-70
2023/05/18 05:13:03;;;;;;;9.65;2.80;;;10.30;99.60;;;;;;5116103;28;20019;-70
2023/05/18 05:15:29;;;;;;;14.20;3.95;;;10.30;99.40;;;;;;5115707;28;20031;-70
2023/05/18 05:17:56;;;;;;;14.70;3.58;;;10.30;99.30;;;;;;5115562;28;20066;-70
2023/05/18 05:20:21;;;;;;;11.48;3.22;;;10.40;99.40;;;;;;5115706;28;20027;-69
2023/05/18 05:22:47;;;;;;;13.65;3.65;;;10.30;98.90;;;;;;5115567;28;20035;-70
2023/05/18 05:25:13;;;;;;;13.30;3.35;;;10.40;99.00;;;;;;5115118;28;20157;-70
2023/05/18 05:27:38;;;;;;;10.75;2.95;;;10.40;98.90;;;;;;5115381;28;20066;-69
2023/05/18 05:30:04;;;;;;;8.98;2.95;;;10.30;98.90;;;;;;5115845;28;20054;-70
2023/05/18 05:32:30;;;;;;;11.52;2.90;;;10.40;99.00;;;;;;5115707;28;20039;-69
2023/05/18 05:34:56;;;;;;;12.73;3.35;;;10.40;98.90;;;;;;5115554;28;20046;-70
2023/05/18 05:37:21;;;;;;;14.35;3.25;;;10.40;99.00;;;;;;5115598;28;20133;-71
2023/05/18 05:39:47;;;;;;;8.68;2.92;;;10.40;99.30;;;;;;5114817;28;20027;-70
2023/05/18 05:42:13;;;;;;;7.32;2.67;;;10.40;98.80;;;;;;5115109;28;20383;-70
2023/05/18 05:44:39;;;;;;;14.52;3.20;;;10.40;99.00;;;;;;5114536;28;20523;-76
2023/05/18 05:47:05;;;;;;;15.02;3.33;;;10.40;99.10;;;;;;5115516;28;20051;-70
2023/05/18 05:49:31;;;;;;;9.88;2.85;;;10.40;98.90;;;;;;5115400;28;20062;-70
2023/05/18 05:51:57;;;;;;;11.15;2.83;;;10.40;98.30;;;;;;5114630;28;20448;-70
2023/05/18 05:54:22;;;;;;;9.95;3.40;;;10.40;98.30;;;;;;5114231;28;20027;-69
2023/05/18 05:56:48;;;;;;;10.23;2.58;;;10.40;98.00;;;;;;5114552;28;20110;-69
2023/05/18 05:59:14;;;;;;;12.20;3.67;;;10.40;98.00;;;;;;5115329;28;20020;-69
2023/05/18 06:01:40;;;;;;;11.80;2.88;;;10.40;98.30;;;;;;5114367;28;20456;-71
2023/05/18 06:04:09;;;;;;;12.10;3.30;;;10.40;98.00;;;;;;5115075;28;20106;-69
2023/05/18 06:06:36;;;;;;;9.02;2.40;;;10.50;98.10;;;;;;5114992;28;20032;-70
2023/05/18 06:09:03;;;;;;;13.02;2.95;;;10.50;97.90;;;;;;5114363;28;20391;-70
2023/05/18 06:11:29;;;;;;;10.95;3.22;;;10.50;98.00;;;;;;5114839;28;20100;-69
2023/05/18 06:13:55;;;;;;;8.70;2.90;;;10.50;98.00;;;;;;5114476;28;20023;-69
2023/05/18 06:16:20;;;;;;;14.00;3.25;;;10.50;98.00;;;;;;5114845;28;20027;-69
2023/05/18 06:18:47;;;;;;;14.38;2.95;;;10.60;97.70;;;;;;5114392;28;20036;-69
2023/05/18 06:21:14;;;;;;;10.70;3.55;;;10.50;97.60;;;;;;5114656;28;20039;-69
2023/05/18 06:23:39;;;;;;;15.70;3.80;;;10.50;97.90;;;;;;5114709;28;20032;-68
2023/05/18 06:26:05;;;;;;;15.85;3.38;;;10.50;97.60;;;;;;5113813;28;20031;-68
2023/05/18 06:28:31;;;;;;;13.50;3.60;;;10.50;97.70;;;;;;5114495;28;20104;-69
2023/05/18 06:30:57;;;;;;;12.40;3.80;;;10.60;97.60;;;;;;5113835;28;20028;-69
2023/05/18 06:33:23;;;;;;;12.23;3.10;;;10.60;97.60;;;;;;5114183;28;20038;-68
2023/05/18 06:35:48;;;;;;;11.10;3.05;;;10.50;97.30;;;;;;5114048;28;20020;-69
2023/05/18 06:38:14;;;;;;;15.85;3.13;;;10.60;97.70;;;;;;5113537;28;20030;-69
2023/05/18 06:40:40;;;;;;;14.80;2.80;;;10.60;97.80;;;;;;5114320;28;20039;-69
2023/05/18 06:43:05;;;;;;;14.52;3.45;;;10.50;98.10;;;;;;5113867;28;20448;-68
2023/05/18 06:45:31;;;;;;;23.15;4.55;;;10.60;98.20;;;;;;5112826;28;20049;-69
2023/05/18 06:47:57;;;;;;;17.38;3.85;;;10.60;97.90;;;;;;5113706;28;20111;-69
2023/05/18 06:50:22;;;;;;;15.45;2.97;;;10.60;97.90;;;;;;5114062;28;20101;-69
2023/05/18 06:52:48;;;;;;;12.85;3.50;;;10.60;98.00;;;;;;5113760;28;20099;-69
2023/05/18 06:55:14;;;;;;;14.55;3.22;;;10.60;97.90;;;;;;5113598;28;20468;-69
2023/05/18 06:57:40;;;;;;;15.15;3.65;;;10.60;98.00;;;;;;5113868;28;20539;-69
2023/05/18 07:00:07;;;;;;;11.48;3.28;;;10.60;98.00;;;;;;5113683;28;20039;-70
2023/05/18 07:02:33;;;;;;;11.95;3.42;;;10.60;98.10;;;;;;5112775;28;20035;-69
2023/05/18 07:05:00;;;;;;;10.70;3.30;;;10.60;98.10;;;;;;5113255;28;20020;-69
2023/05/18 07:07:26;;;;;;;11.85;3.97;;;10.60;98.10;;;;;;5113703;28;20024;-69
2023/05/18 07:09:53;;;;;;;14.65;3.72;;;10.60;98.30;;;;;;5113238;28;20027;-69
2023/05/18 07:12:19;;;;;;;10.65;3.67;;;10.60;98.40;;;;;;5112373;28;20028;-69
2023/05/18 07:14:45;;;;;;;13.15;3.30;;;10.60;98.20;;;;;;5113844;28;20027;-76
2023/05/18 07:17:10;;;;;;;9.15;3.38;;;10.70;98.30;;;;;;5114083;28;20038;-69
2023/05/18 07:19:36;;;;;;;12.13;3.40;;;10.60;98.30;;;;;;5113428;28;20055;-69
2023/05/18 07:22:03;;;;;;;17.17;3.80;;;10.60;98.40;;;;;;5113182;28;20035;-69
2023/05/18 07:24:29;;;;;;;14.63;3.50;;;10.60;98.50;;;;;;5113576;28;20035;-70
2023/05/18 07:26:54;;;;;;;14.90;3.50;;;10.60;98.90;;;;;;5111722;28;20046;-70
2023/05/18 07:29:20;;;;;;;14.13;4.05;;;10.50;99.10;;;;;;5113753;28;20099;-70
2023/05/18 07:31:46;;;;;;;14.35;3.45;;;10.50;98.90;;;;;;5113208;28;20099;-75
2023/05/18 07:34:12;;;;;;;13.38;3.72;;;10.50;99.00;;;;;;5113613;28;20464;-69
2023/05/18 07:36:37;;;;;;;12.48;3.75;;;10.50;99.00;;;;;;5113155;28;20026;-69
2023/05/18 07:39:03;;;;;;;18.85;3.90;;;10.50;99.20;;;;;;5112579;28;20031;-70
2023/05/18 07:41:30;;;;;;;15.20;3.92;;;10.50;99.20;;;;;;5112842;28;20402;-70
2023/05/18 07:43:56;;;;;;;10.75;3.38;;;10.50;99.20;;;;;;5112887;28;20032;-70
2023/05/18 07:46:22;;;;;;;16.55;3.75;;;10.60;98.90;;;;;;5113462;28;20050;-69
2023/05/18 07:48:47;;;;;;;14.15;3.63;;;10.50;98.70;;;;;;5112255;28;20063;-73
2023/05/18 07:51:13;;;;;;;10.50;3.45;;;10.50;98.90;;;;;;5113080;28;20037;-69
2023/05/18 07:53:40;;;;;;;13.50;3.42;;;10.60;99.00;;;;;;5113272;28;20115;-70
2023/05/18 07:56:07;;;;;;;15.02;4.63;;;10.60;99.00;;;;;;5113114;28;20076;-69
2023/05/18 07:58:34;;;;;;;15.50;3.95;;;10.60;98.80;;;;;;5112800;28;20110;-69
2023/05/18 08:01:00;;;;;;;12.35;3.35;;;10.60;99.10;;;;;;5112849;28;20475;-68
2023/05/18 08:03:25;;;;;;;12.95;3.92;;;10.60;98.90;;;;;;5114561;28;20027;-69
2023/05/18 08:05:51;;;;;;;15.85;3.25;;;10.60;98.90;;;;;;5114306;28;20027;-70
2023/05/18 08:08:17;;;;;;;15.18;4.07;;;10.70;98.70;;;;;;5115321;28;20024;-69
2023/05/18 08:10:43;;;;;;;18.95;3.78;;;10.70;98.70;;;;;;5114360;28;20027;-69
2023/05/18 08:13:08;;;;;;;13.10;3.80;;;10.70;98.30;;;;;;5112790;28;20032;-70
2023/05/18 08:15:36;;;;;;;12.95;3.83;;;10.60;98.10;;;;;;5112983;28;20080;-70
2023/05/18 08:18:01;;;;;;;8.98;3.67;;;10.70;98.40;;;;;;5112603;28;20038;-69
2023/05/18 08:20:29;;;;;;;15.00;3.55;;;10.70;98.00;;;;;;5112986;28;20020;-70
2023/05/18 08:22:56;;;;;;;17.90;4.28;;;10.70;98.10;;;;;;5111304;28;20487;-70
2023/05/18 08:25:22;;;;;;;12.45;3.58;;;10.70;98.10;;;;;;5111955;28;20467;-69
2023/05/18 08:27:48;;;;;;;12.77;4.00;;;10.70;97.90;;;;;;5112719;28;20024;-70
2023/05/18 08:30:14;;;;;;;14.93;3.85;;;10.80;98.10;;;;;;5112385;28;20239;-68
2023/05/18 08:32:40;;;;;;;9.35;3.50;;;10.80;98.00;;;;;;5112677;28;20039;-68
2023/05/18 08:35:07;;;;;;;11.80;3.30;;;10.70;97.60;;;;;;5112348;28;20110;-70
2023/05/18 08:37:36;;;;;;;13.10;4.03;;;10.70;97.90;;;;;;5112884;28;20023;-70
2023/05/18 08:40:03;;;;;;;12.82;3.92;;;10.80;98.10;;;;;;5112400;28;20024;-71
2023/05/18 08:42:33;;;;;;;17.98;3.63;;;10.80;97.50;;;;;;5112860;28;20061;-68
2023/05/18 08:45:21;;;;;;;14.45;3.80;;;10.70;97.60;;;;;;5112155;28;20048;-70
2023/05/18 08:47:50;;;;;;;17.20;3.78;;;10.70;97.60;;;;;;5111607;28;20028;-69
2023/05/18 08:50:19;;;;;;;15.35;3.60;;;10.80;97.80;;;;;;5112216;28;20023;-70
2023/05/18 08:52:54;;;;;;;10.20;3.58;;;10.80;97.50;;;;;;5112349;28;20046;-70
2023/05/18 08:55:22;;;;;;;14.85;3.72;;;10.80;97.80;;;;;;5112796;28;20020;-70
2023/05/18 08:57:56;;;;;;;10.38;3.35;;;10.90;97.70;;;;;;5112001;28;20024;-70
2023/05/18 09:00:25;;;;;;;11.80;3.45;;;10.90;97.80;;;;;;5113374;28;20100;-70
2023/05/18 09:02:51;;;;;;;15.55;4.13;;;10.90;97.60;;;;;;5116212;28;20107;-70
2023/05/18 09:05:17;;;;;;;14.65;3.85;;;10.90;97.70;;;;;;5116110;28;20114;-70
2023/05/18 09:07:43;;;;;;;15.30;3.85;;;10.80;97.50;;;;;;5116224;28;20102;-70
2023/05/18 09:10:14;;;;;;;11.98;4.13;;;10.90;97.90;;;;;;5115827;28;20458;-70
2023/05/18 09:12:42;;;;;;;12.48;3.08;;;10.80;98.10;;;;;;5116206;28;20043;-70
2023/05/18 09:15:10;;;;;;;15.77;3.88;;;10.90;97.60;;;;;;5113997;28;20039;-70
2023/05/18 09:17:36;;;;;;;12.00;4.15;;;10.90;98.00;;;;;;5115956;28;20032;-70
2023/05/18 09:20:04;;;;;;;9.02;3.55;;;10.90;97.90;;;;;;5115677;28;20085;-70
2023/05/18 09:22:30;;;;;;;12.50;3.95;;;10.90;97.70;;;;;;5116045;27;20436;-70
2023/05/18 09:24:56;;;;;;;13.35;3.85;;;10.90;97.70;;;;;;5115511;28;20035;-71
2023/05/18 09:27:22;;;;;;;13.98;4.55;;;10.90;97.60;;;;;;5115834;27;20020;-70
2023/05/18 09:29:53;;;;;;;12.98;3.60;;;10.80;97.70;;;;;;5115912;28;20118;-69
2023/05/18 09:32:19;;;;;;;14.50;4.60;;;10.80;98.00;;;;;;5115174;28;20384;-70
2023/05/18 09:34:47;;;;;;;17.23;4.40;;;10.80;97.90;;;;;;5114164;28;20065;-69
2023/05/18 09:37:16;;;;;;;12.00;4.18;;;10.90;98.10;;;;;;5113991;28;20035;-70
2023/05/18 09:39:41;;;;;;;15.43;4.68;;;10.90;98.00;;;;;;5115237;28;20020;-71
2023/05/18 09:42:07;;;;;;;14.23;4.38;;;10.90;98.20;;;;;;5114632;28;20039;-70
2023/05/18 09:44:33;;;;;;;13.90;3.97;;;10.90;98.20;;;;;;5115591;28;20048;-70
2023/05/18 09:46:59;;;;;;;13.40;4.13;;;10.90;98.20;;;;;;5114814;28;20507;-70
2023/05/18 09:49:27;;;;;;;10.65;3.90;;;10.90;98.20;;;;;;5115451;28;20059;-70
2023/05/18 09:51:53;;;;;;;18.13;4.65;;;11.00;98.20;;;;;;5115251;28;20085;-70
2023/05/18 09:54:18;;;;;;;12.50;4.10;;;11.00;98.80;;;;;;5114838;28;20414;-70
2023/05/18 09:56:45;;;;;;;12.48;4.20;;;11.00;98.30;;;;;;5114991;28;20388;-70
2023/05/18 09:59:14;;;;;;;13.20;4.22;;;11.00;98.50;;;;;;5114708;28;20023;-70
2023/05/18 10:02:11;;;;;;;13.80;4.70;;;11.00;98.90;;;;;;5115245;28;20039;-70
2023/05/18 10:04:39;;;;;;;16.13;5.22;;;11.00;99.10;;;;;;5102454;28;20032;-70
2023/05/18 10:07:11;;;;;;;16.10;4.78;;;11.10;98.90;;;;;;5114642;28;20089;-69
2023/05/18 10:09:39;;;;;;;9.48;3.83;;;11.10;98.70;;;;;;5114847;28;20061;-69
2023/05/18 10:12:20;;;;;;;14.75;4.78;;;11.10;99.10;;;;;;5114153;28;20046;-70
2023/05/18 10:14:45;;;;;;;15.73;4.20;;;11.20;98.80;;;;;;5115035;28;20332;-70
2023/05/18 10:17:11;;;;;;;15.40;4.47;;;11.20;98.60;;;;;;5114389;28;20023;-70
2023/05/18 10:19:40;;;;;;;11.85;4.07;;;11.20;98.80;;;;;;5114756;28;20049;-69
2023/05/18 10:22:07;;;;;;;10.20;4.32;;;11.30;98.80;;;;;;5114041;28;20027;-70
2023/05/18 10:24:37;;;;;;;12.57;4.13;;;11.30;98.40;;;;;;5114620;28;20028;-69
2023/05/18 10:27:06;;;;;;;11.13;5.10;;;11.30;98.20;;;;;;5114742;28;20035;-70
2023/05/18 10:29:35;;;;;;;12.45;3.78;;;11.30;98.10;;;;;;5114479;28;20724;-70
2023/05/18 10:32:05;;;;;;;14.02;4.57;;;11.30;98.30;;;;;;5114119;28;20071;-70
2023/05/18 10:34:32;;;;;;;8.88;3.95;;;11.30;98.50;;;;;;5114409;28;20020;-69
2023/05/18 10:37:02;;;;;;;10.23;3.65;;;11.30;98.50;;;;;;5114667;28;20042;-69
2023/05/18 10:39:29;;;;;;;20.25;5.40;;;11.30;98.30;;;;;;5114605;28;20038;-69
2023/05/18 10:41:56;;;;;;;20.20;5.20;;;11.30;98.00;;;;;;5114543;28;20046;-69
2023/05/18 10:44:24;;;;;;;17.13;4.50;;;11.30;98.30;;;;;;5113326;28;20100;-70
2023/05/18 10:46:50;;;;;;;11.57;4.65;;;11.30;98.50;;;;;;5114087;28;20104;-71
2023/05/18 10:49:23;;;;;;;16.00;4.57;;;11.30;98.60;;;;;;5112130;28;20019;-70
2023/05/18 10:51:53;;;;;;;9.60;4.10;;;11.30;98.50;;;;;;5113938;28;20464;-70
2023/05/18 10:54:23;;;;;;;14.10;5.13;;;11.30;98.70;;;;;;5113942;28;20027;-70
2023/05/18 10:56:52;;;;;;;16.88;5.20;;;11.30;98.70;;;;;;5113875;28;20076;-70
2023/05/18 10:59:19;;;;;;;19.60;4.93;;;11.30;98.90;;;;;;5113758;28;20452;-70
2023/05/18 11:01:47;;;;;;;10.90;4.32;;;11.30;98.90;;;;;;5114252;28;20032;-70
2023/05/18 11:04:13;;;;;;;15.38;4.68;;;11.30;98.40;;;;;;5113792;28;20114;-70
2023/05/18 11:06:39;;;;;;;21.98;5.72;;;11.30;98.60;;;;;;5113925;28;20106;-70
2023/05/18 11:09:05;;;;;;;15.13;4.28;;;11.40;98.70;;;;;;5113200;28;20107;-70
2023/05/18 11:11:54;;;;;;;15.63;5.10;;;11.40;98.90;;;;;;5113723;28;20088;-70
2023/05/18 11:14:31;;;;;;;13.45;4.25;;;11.30;98.40;;;;;;5113370;28;20026;-69
2023/05/18 11:17:18;;;;;;;11.40;4.85;;;11.30;98.50;;;;;;5113589;28;20317;-70
2023/05/18 11:20:08;;;;;;;12.07;4.88;;;11.40;99.20;;;;;;5113623;28;20035;-70
2023/05/18 11:22:50;;;;;;;17.02;4.20;;;11.40;99.00;;;;;;5113474;28;20031;-69
2023/05/18 11:25:27;;;;;;;11.85;4.15;;;11.40;98.60;;;;;;5113014;28;20028;-69
2023/05/18 11:28:03;;;;;;;15.05;4.70;;;11.40;98.50;;;;;;5113460;28;20063;-70
2023/05/18 11:30:49;;;;;;;16.98;4.25;;;11.40;98.30;;;;;;5113366;28;20023;-70
2023/05/18 11:33:28;;;;;;;15.73;4.78;;;11.40;98.30;;;;;;5112914;28;20394;-69
2023/05/18 11:36:01;;;;;;;12.65;4.55;;;11.40;98.50;;;;;;5113351;28;20034;-70
2023/05/18 11:38:53;;;;;;;13.32;4.13;;;11.50;99.10;;;;;;5112621;28;20460;-69
2023/05/18 11:41:41;;;;;;;11.18;4.22;;;11.50;99.20;;;;;;5112945;28;20023;-71
2023/05/18 11:44:23;;;;;;;12.45;4.20;;;11.50;98.90;;;;;;5110945;28;20114;-70
2023/05/18 11:47:02;;;;;;;12.45;4.47;;;11.50;99.50;;;;;;5113452;28;20376;-70
2023/05/18 11:49:30;;;;;;;18.52;4.72;;;11.50;99.60;;;;;;5112825;28;20032;-70
2023/05/18 11:52:05;;;;;;;15.48;4.20;;;11.50;99.70;;;;;;5113029;28;20032;-70
2023/05/18 11:54:37;;;;;;;23.85;5.35;;;11.50;99.60;;;;;;5113160;28;20081;-70
2023/05/18 11:57:03;;;;;;;15.45;4.35;;;11.60;99.90;;;;;;5113221;28;20092;-70
2023/05/18 11:59:53;;;;;;;15.43;3.92;;;11.60;99.60;;;;;;5112425;28;20024;-70
2023/05/18 12:02:22;;;;;;;14.65;4.55;;;11.60;99.50;;;;;;5112817;28;20472;-70
2023/05/18 12:04:51;;;;;;;10.38;4.20;;;11.60;99.70;;;;;;5113158;28;20024;-69
2023/05/18 12:07:18;;;;;;;13.63;5.05;;;11.60;99.60;;;;;;5112630;28;20100;-69
2023/05/18 12:09:46;;;;;;;14.35;4.68;;;11.60;99.70;;;;;;5113102;28;20031;-69
2023/05/18 12:12:15;;;;;;;16.13;4.30;;;11.70;99.80;;;;;;5111460;28;20039;-69
2023/05/18 12:14:41;;;;;;;11.52;3.90;;;11.70;99.80;;;;;;5112872;28;20035;-69
2023/05/18 12:17:07;;;;;;;14.45;4.55;;;11.70;99.60;;;;;;5112832;28;20046;-75
2023/05/18 12:19:51;;;;;;;14.38;4.35;;;11.70;99.40;;;;;;5111842;28;20375;-69
2023/05/18 12:22:17;;;;;;;17.55;4.50;;;11.70;99.30;;;;;;5112646;28;20405;-70
2023/05/18 12:24:43;;;;;;;17.52;4.75;;;11.80;99.50;;;;;;5112638;28;20031;-70
2023/05/18 12:27:10;;;;;;;17.08;4.28;;;11.80;99.40;;;;;;5111174;28;20024;-71
2023/05/18 12:29:41;;;;;;;17.85;4.20;;;11.80;99.50;;;;;;5112771;28;20520;-70
2023/05/18 12:32:11;;;;;;;14.97;4.43;;;11.80;99.50;;;;;;5113030;28;20028;-70
2023/05/18 12:34:38;;;;;;;12.13;3.83;;;11.80;98.80;;;;;;5112686;28;20506;-70
2023/05/18 12:37:05;;;;;;;16.10;4.20;;;11.80;98.80;;;;;;5116403;28;20103;-69
2023/05/18 12:39:31;;;;;;;12.65;3.83;;;11.80;99.00;;;;;;5116288;28;20024;-69
2023/05/18 12:42:17;;;;;;;14.07;4.75;;;11.80;99.30;;;;;;5116642;28;20102;-69
2023/05/18 12:44:43;;;;;;;18.63;4.63;;;11.90;99.50;;;;;;5115968;27;20047;-69